Time;durP1;ratioP1;P1;durP2;ratioP2;P2;SDS_P1;SDS_P2;PMS_P1;PMS_P2;Temp;Humidity;BMP_temperature;BMP_pressure;BME280_temperature;BME280_humidity;BME280_pressure;Samples;Min_cycle;Max_cycle;Signal;HPM_P1;HPM_P2
2023/08/13 00:01:02;;;;;;;5.25;1.77;;;19.80;72.30;;;;;;5065244;28;20478;-68
2023/08/13 00:03:28;;;;;;;4.95;2.08;;;19.70;72.40;;;;;;5066037;28;20025;-68
2023/08/13 00:05:53;;;;;;;4.88;2.00;;;19.70;72.50;;;;;;5059935;28;20054;-68
2023/08/13 00:08:19;;;;;;;4.97;1.67;;;19.60;72.50;;;;;;5066476;28;20028;-67
2023/08/13 00:10:44;;;;;;;6.57;2.35;;;19.60;72.50;;;;;;5063605;28;20374;-68
2023/08/13 00:13:10;;;;;;;4.65;1.83;;;19.50;72.60;;;;;;5067391;28;20479;-67
2023/08/13 00:15:36;;;;;;;5.40;1.67;;;19.50;72.60;;;;;;5060036;28;20025;-68
2023/08/13 00:18:02;;;;;;;5.32;2.00;;;19.50;72.70;;;;;;5063130;28;20021;-69
2023/08/13 00:20:27;;;;;;;4.70;1.77;;;19.50;72.80;;;;;;5064302;28;20063;-68
2023/08/13 00:22:53;;;;;;;9.68;2.22;;;19.50;72.80;;;;;;5062854;28;20070;-69
2023/08/13 00:25:19;;;;;;;4.07;1.80;;;19.40;72.90;;;;;;5065051;28;20021;-69
2023/08/13 00:27:44;;;;;;;4.47;1.77;;;19.40;72.90;;;;;;5061202;28;20028;-68
2023/08/13 00:30:10;;;;;;;6.20;2.15;;;19.40;72.90;;;;;;5062232;28;20025;-67
2023/08/13 00:32:35;;;;;;;5.15;1.73;;;19.30;72.90;;;;;;5059624;28;20139;-68
2023/08/13 00:35:01;;;;;;;6.18;1.85;;;19.30;73.00;;;;;;5063122;28;20043;-67
2023/08/13 00:37:27;;;;;;;7.03;1.80;;;19.20;73.20;;;;;;5065500;28;20031;-68
2023/08/13 00:39:52;;;;;;;5.57;1.80;;;19.20;73.30;;;;;;5064537;28;20028;-68
2023/08/13 00:42:18;;;;;;;6.13;1.90;;;19.20;73.40;;;;;;5064254;28;20029;-67
2023/08/13 00:44:45;;;;;;;3.47;1.90;;;19.10;73.30;;;;;;5066735;28;20031;-67
2023/08/13 00:47:11;;;;;;;3.15;1.52;;;19.10;73.40;;;;;;5061987;28;20078;-67
2023/08/13 00:49:36;;;;;;;5.72;1.85;;;19.10;73.50;;;;;;5060771;28;20021;-68
2023/08/13 00:52:02;;;;;;;5.65;1.67;;;19.10;73.50;;;;;;5062669;28;20079;-68
2023/08/13 00:54:28;;;;;;;4.97;1.88;;;19.10;73.50;;;;;;5065029;28;20034;-67
2023/08/13 00:56:54;;;;;;;4.47;1.80;;;19.00;73.60;;;;;;5061900;28;20044;-68
2023/08/13 00:59:20;;;;;;;5.97;2.30;;;19.00;73.90;;;;;;5066172;28;20052;-69
2023/08/13 01:01:46;;;;;;;5.03;2.17;;;19.00;74.10;;;;;;5055686;28;20033;-68
2023/08/13 01:04:12;;;;;;;6.20;2.20;;;18.90;74.40;;;;;;5066770;28;20013;-68
2023/08/13 01:06:59;;;;;;;6.38;2.00;;;18.90;74.50;;;;;;5061468;28;20028;-69
2023/08/13 01:09:54;;;;;;;4.57;1.50;;;18.80;74.60;;;;;;5058565;28;20020;-69
2023/08/13 01:12:37;;;;;;;5.95;2.00;;;18.80;74.60;;;;;;5054525;28;20075;-69
2023/08/13 01:15:12;;;;;;;5.68;2.05;;;18.80;74.80;;;;;;5061442;28;20748;-68
2023/08/13 01:17:38;;;;;;;5.50;2.13;;;18.80;74.90;;;;;;5065302;28;20050;-70
2023/08/13 01:20:08;;;;;;;5.75;2.17;;;18.70;75.10;;;;;;5068047;28;20020;-69
2023/08/13 01:22:38;;;;;;;4.55;2.10;;;18.70;75.30;;;;;;5062571;28;20904;-70
2023/08/13 01:25:07;;;;;;;4.40;2.10;;;18.70;75.50;;;;;;5069060;28;20028;-69
2023/08/13 01:27:45;;;;;;;6.13;2.10;;;18.60;75.70;;;;;;5061626;28;20021;-69
2023/08/13 01:30:25;;;;;;;6.25;2.30;;;18.60;75.80;;;;;;5065129;28;20486;-68
2023/08/13 01:32:58;;;;;;;6.20;2.20;;;18.60;75.80;;;;;;5067247;28;20039;-68
2023/08/13 01:35:25;;;;;;;6.80;2.45;;;18.50;76.00;;;;;;5065349;28;20040;-68
2023/08/13 01:37:52;;;;;;;4.85;2.15;;;18.50;76.10;;;;;;5069805;28;20032;-68
2023/08/13 01:40:17;;;;;;;4.72;1.92;;;18.50;76.20;;;;;;5064865;28;20395;-68
2023/08/13 01:42:43;;;;;;;6.80;2.20;;;18.50;76.30;;;;;;5067367;28;20025;-69
2023/08/13 01:45:09;;;;;;;5.13;2.05;;;18.50;76.50;;;;;;5066834;28;20443;-68
2023/08/13 01:47:34;;;;;;;5.38;1.83;;;18.50;76.50;;;;;;5064430;28;20449;-69
2023/08/13 01:50:00;;;;;;;6.75;2.10;;;18.50;76.40;;;;;;5065273;28;20044;-68
2023/08/13 01:52:25;;;;;;;4.28;1.80;;;18.50;76.30;;;;;;5067475;28;20063;-69
2023/08/13 01:54:52;;;;;;;4.82;2.00;;;18.50;76.40;;;;;;5062448;28;21622;-69
2023/08/13 01:57:18;;;;;;;6.43;1.90;;;18.40;76.40;;;;;;5066204;28;20036;-69
2023/08/13 01:59:44;;;;;;;3.17;1.95;;;18.40;76.60;;;;;;5067934;28;20036;-69
2023/08/13 02:02:09;;;;;;;6.60;2.10;;;18.40;76.70;;;;;;5063603;28;20111;-69
2023/08/13 02:04:35;;;;;;;5.43;2.00;;;18.40;76.70;;;;;;5065160;28;20121;-68
2023/08/13 02:07:00;;;;;;;5.78;2.20;;;18.40;76.70;;;;;;5067753;28;20081;-68
2023/08/13 02:09:27;;;;;;;5.75;2.00;;;18.30;76.90;;;;;;5064536;28;20063;-69
2023/08/13 02:11:53;;;;;;;3.58;1.70;;;18.30;77.00;;;;;;5066403;28;20025;-68
2023/08/13 02:14:18;;;;;;;5.60;2.00;;;18.30;77.10;;;;;;5066257;28;20017;-69
2023/08/13 02:16:44;;;;;;;7.47;2.40;;;18.20;77.20;;;;;;5066644;28;20028;-70
2023/08/13 02:19:09;;;;;;;4.50;2.10;;;18.20;77.40;;;;;;5061905;28;20032;-70
2023/08/13 02:21:35;;;;;;;4.53;1.80;;;18.20;77.60;;;;;;5064715;28;20096;-69
2023/08/13 02:24:00;;;;;;;6.55;2.30;;;18.10;77.70;;;;;;5064921;28;20037;-68
2023/08/13 02:26:26;;;;;;;5.60;2.33;;;18.10;78.20;;;;;;5067495;28;20099;-69
2023/08/13 02:28:51;;;;;;;6.25;1.75;;;18.00;78.50;;;;;;5068592;28;20031;-69
2023/08/13 02:31:17;;;;;;;4.93;1.88;;;18.00;78.70;;;;;;5063456;28;21300;-70
2023/08/13 02:33:43;;;;;;;4.57;2.10;;;18.00;78.80;;;;;;5067066;28;20039;-69
2023/08/13 02:36:08;;;;;;;4.78;1.88;;;18.00;79.10;;;;;;5068011;28;20031;-69
2023/08/13 02:38:34;;;;;;;5.32;1.80;;;18.00;79.10;;;;;;5063632;28;20051;-70
2023/08/13 02:40:59;;;;;;;8.45;2.30;;;17.90;79.10;;;;;;5064498;28;20051;-69
2023/08/13 02:43:28;;;;;;;6.57;2.45;;;17.90;79.40;;;;;;5068847;28;20024;-69
2023/08/13 02:45:54;;;;;;;7.63;2.40;;;17.90;79.70;;;;;;5065496;28;20039;-68
2023/08/13 02:48:19;;;;;;;6.10;2.50;;;17.80;79.90;;;;;;5069354;28;20483;-69
2023/08/13 02:50:45;;;;;;;4.03;1.83;;;17.80;79.90;;;;;;5068612;28;20483;-69
2023/08/13 02:53:10;;;;;;;7.38;2.25;;;17.80;79.90;;;;;;5069461;28;20032;-68
2023/08/13 02:55:36;;;;;;;9.02;2.30;;;17.80;79.80;;;;;;5066864;28;20483;-68
2023/08/13 02:58:02;;;;;;;7.05;2.03;;;17.80;80.10;;;;;;5069058;28;20048;-68
2023/08/13 03:00:27;;;;;;;6.32;2.38;;;17.80;80.30;;;;;;5064196;28;20202;-69
2023/08/13 03:02:53;;;;;;;7.15;2.40;;;17.70;80.50;;;;;;5067307;28;20113;-69
2023/08/13 03:05:18;;;;;;;4.82;1.80;;;17.70;80.60;;;;;;5063339;28;20039;-69
2023/08/13 03:07:44;;;;;;;5.45;2.10;;;17.70;80.60;;;;;;5067577;28;20020;-68
2023/08/13 03:10:10;;;;;;;8.05;2.22;;;17.70;80.90;;;;;;5068650;28;20020;-69
2023/08/13 03:12:35;;;;;;;6.68;2.30;;;17.70;81.00;;;;;;5064456;28;20616;-69
2023/08/13 03:15:01;;;;;;;6.38;1.90;;;17.70;81.10;;;;;;5067574;28;20017;-70
2023/08/13 03:17:26;;;;;;;6.40;2.25;;;17.60;81.20;;;;;;5062608;28;20029;-68
2023/08/13 03:19:52;;;;;;;5.50;2.20;;;17.60;81.30;;;;;;5066945;28;20021;-68
2023/08/13 03:22:17;;;;;;;6.68;2.38;;;17.60;81.40;;;;;;5065012;28;20487;-71
2023/08/13 03:24:43;;;;;;;6.65;1.95;;;17.60;81.50;;;;;;5061070;28;20535;-69
2023/08/13 03:27:08;;;;;;;8.70;2.30;;;17.60;81.50;;;;;;5066812;28;20037;-68
2023/08/13 03:29:34;;;;;;;6.55;2.05;;;17.60;81.70;;;;;;5067056;28;20057;-67
2023/08/13 03:31:59;;;;;;;5.70;1.98;;;17.60;81.80;;;;;;5068537;28;20028;-69
2023/08/13 03:34:25;;;;;;;6.57;1.83;;;17.60;81.90;;;;;;5067934;28;20105;-68
2023/08/13 03:36:52;;;;;;;7.25;2.15;;;17.60;81.80;;;;;;5066584;28;20514;-68
2023/08/13 03:39:18;;;;;;;6.15;2.10;;;17.60;81.80;;;;;;5067805;28;20074;-68
2023/08/13 03:41:43;;;;;;;6.25;2.20;;;17.60;82.10;;;;;;5068399;28;20491;-68
2023/08/13 03:44:09;;;;;;;6.03;2.05;;;17.60;82.00;;;;;;5066915;28;20529;-69
2023/08/13 03:46:34;;;;;;;5.72;1.92;;;17.60;82.00;;;;;;5064092;28;20429;-69
2023/08/13 03:49:00;;;;;;;8.60;2.40;;;17.60;82.00;;;;;;5063192;28;20069;-68
2023/08/13 03:51:26;;;;;;;5.50;2.13;;;17.60;82.10;;;;;;5059805;28;20017;-68
2023/08/13 03:53:51;;;;;;;5.00;1.98;;;17.60;82.20;;;;;;5059277;28;20082;-68
2023/08/13 03:56:17;;;;;;;7.70;2.00;;;17.50;82.20;;;;;;5063950;28;20683;-68
2023/08/13 03:58:42;;;;;;;5.97;1.90;;;17.60;82.30;;;;;;5067825;28;20037;-69
2023/08/13 04:01:08;;;;;;;6.95;2.25;;;17.60;82.40;;;;;;5068327;28;20032;-68
2023/08/13 04:03:34;;;;;;;5.60;1.88;;;17.50;82.50;;;;;;5068699;28;20024;-69
2023/08/13 04:06:00;;;;;;;6.22;2.03;;;17.50;82.50;;;;;;5062277;28;20475;-68
2023/08/13 04:08:25;;;;;;;7.63;2.28;;;17.60;82.70;;;;;;5068278;28;20025;-69
2023/08/13 04:10:52;;;;;;;4.88;2.05;;;17.60;82.80;;;;;;5068654;28;20391;-69
2023/08/13 04:13:19;;;;;;;7.70;2.15;;;17.50;82.80;;;;;;5067511;28;20044;-68
2023/08/13 04:15:45;;;;;;;5.60;2.05;;;17.50;83.00;;;;;;5067731;28;20035;-68
2023/08/13 04:18:10;;;;;;;6.63;1.90;;;17.50;83.00;;;;;;5065247;28;20028;-69
2023/08/13 04:20:39;;;;;;;6.63;2.10;;;17.50;82.80;;;;;;5063662;28;20107;-68
2023/08/13 04:23:05;;;;;;;5.53;1.98;;;17.50;82.90;;;;;;5064833;28;20093;-69
2023/08/13 04:25:31;;;;;;;9.02;2.72;;;17.50;83.00;;;;;;5067458;28;20410;-69
2023/08/13 04:27:57;;;;;;;7.35;2.22;;;17.60;83.30;;;;;;5063879;28;20032;-68
2023/08/13 04:30:23;;;;;;;5.82;2.03;;;17.50;83.40;;;;;;5061117;28;20024;-69
2023/08/13 04:32:53;;;;;;;6.82;2.03;;;17.50;83.70;;;;;;5067254;28;20032;-68
2023/08/13 04:35:20;;;;;;;5.27;2.10;;;17.50;83.70;;;;;;5066620;28;20161;-68
2023/08/13 04:37:45;;;;;;;6.13;2.00;;;17.50;83.60;;;;;;5062585;28;20032;-68
2023/08/13 04:40:11;;;;;;;4.63;2.00;;;17.50;83.60;;;;;;5063879;28;20070;-69
2023/08/13 04:42:37;;;;;;;5.05;1.90;;;17.60;83.70;;;;;;5067259;28;20147;-69
2023/08/13 04:45:03;;;;;;;5.80;2.30;;;17.60;83.70;;;;;;5063867;28;20052;-69
2023/08/13 04:47:28;;;;;;;6.05;2.35;;;17.60;83.70;;;;;;5065067;28;20021;-69
2023/08/13 04:49:54;;;;;;;3.42;1.63;;;17.60;83.80;;;;;;5062965;28;20024;-69
2023/08/13 04:52:19;;;;;;;5.85;1.90;;;17.70;83.80;;;;;;5065193;28;20035;-68
2023/08/13 04:54:48;;;;;;;6.35;1.80;;;17.70;83.70;;;;;;5071049;28;20587;-69
2023/08/13 04:57:14;;;;;;;7.82;2.22;;;17.80;83.60;;;;;;5068961;28;20036;-68
2023/08/13 04:59:39;;;;;;;5.30;1.70;;;17.80;83.80;;;;;;5069625;28;20020;-69
2023/08/13 05:02:05;;;;;;;4.93;1.98;;;17.80;83.90;;;;;;5069164;28;20033;-69
2023/08/13 05:04:31;;;;;;;7.82;2.58;;;17.80;83.80;;;;;;5070276;28;20017;-69
2023/08/13 05:06:57;;;;;;;5.07;1.98;;;17.80;84.10;;;;;;5067835;28;20028;-69
2023/08/13 05:09:22;;;;;;;4.72;2.03;;;17.80;84.20;;;;;;5069584;28;20100;-68
2023/08/13 05:11:48;;;;;;;6.55;2.50;;;17.90;83.90;;;;;;5071225;28;20035;-68
2023/08/13 05:14:14;;;;;;;8.23;2.33;;;17.90;84.00;;;;;;5066240;28;20028;-69
2023/08/13 05:16:39;;;;;;;5.05;1.95;;;17.90;84.10;;;;;;5068018;28;20025;-69
2023/08/13 05:19:05;;;;;;;4.22;1.77;;;18.00;84.00;;;;;;5069906;28;20031;-68
2023/08/13 05:21:30;;;;;;;4.97;1.88;;;18.10;83.70;;;;;;5063553;28;20407;-68
2023/08/13 05:23:56;;;;;;;5.47;2.00;;;18.10;83.60;;;;;;5069427;28;20475;-69
2023/08/13 05:26:22;;;;;;;5.85;2.22;;;18.20;83.50;;;;;;5068365;28;20048;-70
2023/08/13 05:28:47;;;;;;;6.65;2.03;;;18.20;83.50;;;;;;5066263;28;20105;-67
2023/08/13 05:31:13;;;;;;;6.90;2.03;;;18.30;83.30;;;;;;5067368;28;20037;-69
2023/08/13 05:33:39;;;;;;;5.55;1.85;;;18.40;83.10;;;;;;5066554;28;20380;-68
2023/08/13 05:36:05;;;;;;;4.05;1.70;;;18.80;83.00;;;;;;5066629;28;20483;-69
2023/08/13 05:38:32;;;;;;;5.22;1.80;;;19.80;81.40;;;;;;5067543;28;20431;-69
2023/08/13 05:40:57;;;;;;;5.38;1.80;;;20.50;78.50;;;;;;5067568;28;20037;-69
2023/08/13 05:43:23;;;;;;;4.63;2.00;;;20.80;76.60;;;;;;5066705;28;20032;-69
2023/08/13 05:45:56;;;;;;;8.85;2.20;;;21.10;75.30;;;;;;5062560;28;20730;-69
2023/08/13 05:48:21;;;;;;;6.75;2.05;;;21.30;73.90;;;;;;5070546;28;20589;-68
2023/08/13 05:50:47;;;;;;;5.63;1.75;;;21.30;73.80;;;;;;5068168;28;20059;-69
2023/08/13 05:53:12;;;;;;;5.18;1.65;;;21.50;73.30;;;;;;5064410;28;20573;-68
2023/08/13 05:55:38;;;;;;;5.05;2.00;;;22.00;72.20;;;;;;5071387;28;20032;-69
2023/08/13 05:58:05;;;;;;;5.15;1.92;;;22.10;71.30;;;;;;5070051;28;20017;-69
2023/08/13 06:00:31;;;;;;;4.70;1.90;;;21.90;71.00;;;;;;5067521;28;20047;-69
2023/08/13 06:02:57;;;;;;;4.68;1.85;;;22.00;71.30;;;;;;5061093;28;20388;-68
2023/08/13 06:05:23;;;;;;;5.00;1.85;;;22.60;70.30;;;;;;5063303;28;20149;-68
2023/08/13 06:07:48;;;;;;;5.53;1.77;;;23.40;68.30;;;;;;5065923;28;20029;-68
2023/08/13 06:10:14;;;;;;;7.78;2.03;;;24.30;66.10;;;;;;5066517;28;20031;-67
2023/08/13 06:12:40;;;;;;;5.20;2.00;;;25.00;63.70;;;;;;5061392;28;20086;-67
2023/08/13 06:15:06;;;;;;;5.47;1.83;;;24.40;63.20;;;;;;5069223;28;20111;-67
2023/08/13 06:17:31;;;;;;;7.60;2.58;;;24.30;64.00;;;;;;5064687;28;20033;-67
2023/08/13 06:19:58;;;;;;;5.90;1.80;;;24.80;63.10;;;;;;5072248;28;20025;-68
2023/08/13 06:22:23;;;;;;;7.18;2.58;;;25.50;61.90;;;;;;5065374;28;20021;-68
2023/08/13 06:24:49;;;;;;;5.15;1.60;;;26.50;60.30;;;;;;5069539;28;20024;-68
2023/08/13 06:27:15;;;;;;;5.95;1.50;;;27.20;58.50;;;;;;5068888;28;20035;-68
2023/08/13 06:29:40;;;;;;;6.47;1.83;;;27.80;57.50;;;;;;5068337;28;20020;-68
2023/08/13 06:32:06;;;;;;;5.68;1.90;;;28.20;56.10;;;;;;5068657;28;20020;-68
2023/08/13 06:34:31;;;;;;;9.07;2.22;;;28.50;55.00;;;;;;5071535;28;20035;-68
2023/08/13 06:36:57;;;;;;;4.60;1.90;;;28.50;53.80;;;;;;5071479;28;20024;-68
2023/08/13 06:39:23;;;;;;;6.65;2.10;;;28.50;53.40;;;;;;5066524;28;20033;-68
2023/08/13 06:41:49;;;;;;;4.93;1.98;;;28.60;53.20;;;;;;5056112;28;20021;-68
2023/08/13 06:44:19;;;;;;;4.07;1.88;;;28.50;53.20;;;;;;5065838;28;20020;-68
2023/08/13 06:46:46;;;;;;;4.72;1.85;;;28.90;53.30;;;;;;5057061;28;20025;-68
2023/08/13 06:49:12;;;;;;;7.15;2.17;;;29.20;52.90;;;;;;5059783;28;20487;-68
2023/08/13 06:51:38;;;;;;;3.38;1.60;;;29.00;52.10;;;;;;5058492;28;20025;-68
2023/08/13 06:54:04;;;;;;;5.35;1.90;;;28.60;52.60;;;;;;5052935;28;20033;-68
2023/08/13 06:56:30;;;;;;;5.40;1.83;;;28.70;52.90;;;;;;5062956;28;20036;-67
2023/08/13 06:58:56;;;;;;;6.63;2.35;;;29.10;52.80;;;;;;5059656;28;20487;-68
2023/08/13 07:01:22;;;;;;;5.55;2.08;;;28.90;52.10;;;;;;5063788;28;20078;-68
2023/08/13 07:03:47;;;;;;;6.70;2.13;;;29.00;52.40;;;;;;5066090;28;20033;-68
2023/08/13 07:06:14;;;;;;;4.40;1.70;;;29.20;52.40;;;;;;5059217;28;20035;-68
2023/08/13 07:08:40;;;;;;;6.00;2.10;;;29.50;52.00;;;;;;5069851;28;20558;-68
2023/08/13 07:11:05;;;;;;;6.38;2.03;;;29.70;51.20;;;;;;5070436;28;20255;-68
2023/08/13 07:13:31;;;;;;;6.72;2.00;;;29.70;51.20;;;;;;5055399;28;20021;-68
2023/08/13 07:15:57;;;;;;;4.72;2.10;;;29.50;50.70;;;;;;5060031;28;20098;-68
2023/08/13 07:18:23;;;;;;;5.90;1.80;;;29.70;50.80;;;;;;5068186;28;20499;-68
2023/08/13 07:20:48;;;;;;;7.07;2.28;;;29.70;50.60;;;;;;5065469;28;20020;-68
2023/08/13 07:23:14;;;;;;;7.72;2.35;;;29.80;50.60;;;;;;5063705;28;20483;-68
2023/08/13 07:25:40;;;;;;;6.82;2.05;;;29.70;50.10;;;;;;5050390;28;20419;-68
2023/08/13 07:28:08;;;;;;;5.95;2.10;;;29.00;50.80;;;;;;5060404;28;20029;-68
2023/08/13 07:30:34;;;;;;;4.70;1.70;;;29.40;51.50;;;;;;5069998;28;20039;-68
2023/08/13 07:33:00;;;;;;;5.20;1.80;;;30.10;51.00;;;;;;5068306;28;20445;-68
2023/08/13 07:35:25;;;;;;;5.75;1.70;;;30.20;50.00;;;;;;5070042;28;20491;-68
2023/08/13 07:37:52;;;;;;;5.72;1.60;;;30.00;50.60;;;;;;5069693;28;20040;-68
2023/08/13 07:40:18;;;;;;;4.40;1.75;;;29.70;51.00;;;;;;5055512;28;20070;-68
2023/08/13 07:42:44;;;;;;;3.97;1.83;;;28.90;51.90;;;;;;5063169;28;20513;-68
2023/08/13 07:45:10;;;;;;;5.28;1.75;;;27.50;53.80;;;;;;5067788;28;20427;-68
2023/08/13 07:47:36;;;;;;;7.75;2.25;;;26.60;56.00;;;;;;5064755;28;20017;-68
2023/08/13 07:50:04;;;;;;;5.88;1.90;;;26.10;57.10;;;;;;5059289;28;20021;-68
2023/08/13 07:52:30;;;;;;;7.45;2.15;;;25.70;58.20;;;;;;5061864;28;20047;-68
2023/08/13 07:54:56;;;;;;;4.40;1.60;;;25.40;58.70;;;;;;5058102;28;20027;-68
2023/08/13 07:57:22;;;;;;;4.63;1.98;;;25.20;59.70;;;;;;5068958;28;20565;-68
2023/08/13 07:59:47;;;;;;;5.80;1.88;;;25.00;60.10;;;;;;5061519;28;20029;-68
2023/08/13 08:02:13;;;;;;;6.13;1.98;;;25.60;60.10;;;;;;5049387;28;20028;-68
2023/08/13 08:04:39;;;;;;;5.68;1.67;;;26.50;59.50;;;;;;5058082;28;20069;-68
2023/08/13 08:07:04;;;;;;;5.20;1.50;;;26.80;58.90;;;;;;5065185;28;20482;-68
2023/08/13 08:09:30;;;;;;;4.57;1.70;;;26.50;58.70;;;;;;5063353;28;20425;-68
2023/08/13 08:11:56;;;;;;;4.53;1.50;;;26.50;59.10;;;;;;5069808;28;20074;-68
2023/08/13 08:14:21;;;;;;;3.80;1.30;;;26.50;59.40;;;;;;5052551;28;20028;-68
2023/08/13 08:16:47;;;;;;;5.95;1.65;;;26.40;59.50;;;;;;5066166;28;20118;-68
2023/08/13 08:19:13;;;;;;;5.78;1.80;;;26.00;59.50;;;;;;5065612;28;20032;-67
2023/08/13 08:21:38;;;;;;;5.30;1.63;;;25.60;60.00;;;;;;5064788;28;20021;-67
2023/08/13 08:24:04;;;;;;;5.80;1.50;;;25.30;60.70;;;;;;5057020;28;20033;-68
2023/08/13 08:26:31;;;;;;;4.97;1.58;;;25.30;61.30;;;;;;5063248;28;20027;-68
2023/08/13 08:28:57;;;;;;;4.45;1.60;;;25.20;61.40;;;;;;5062417;28;20044;-68
2023/08/13 08:31:23;;;;;;;5.00;1.40;;;25.20;61.80;;;;;;5053637;28;20122;-67
2023/08/13 08:33:48;;;;;;;5.75;1.83;;;25.10;61.90;;;;;;5063075;28;20059;-67
2023/08/13 08:36:14;;;;;;;3.97;1.50;;;24.90;61.90;;;;;;5061413;28;20024;-67
2023/08/13 08:38:40;;;;;;;7.53;1.85;;;24.80;62.50;;;;;;5058450;28;20099;-67
2023/08/13 08:41:06;;;;;;;7.50;1.92;;;24.60;62.60;;;;;;5061517;28;20143;-67
2023/08/13 08:43:33;;;;;;;6.68;1.80;;;24.50;62.90;;;;;;5059876;28;20028;-67
2023/08/13 08:45:59;;;;;;;6.32;1.70;;;24.50;63.30;;;;;;5059852;28;20025;-68
2023/08/13 08:48:27;;;;;;;6.65;2.05;;;24.60;63.50;;;;;;5056489;28;20027;-68
2023/08/13 08:50:53;;;;;;;4.88;1.80;;;24.70;63.50;;;;;;5057166;28;20047;-68
2023/08/13 08:53:20;;;;;;;5.18;1.42;;;24.80;63.40;;;;;;5062748;28;20022;-68
2023/08/13 08:55:47;;;;;;;4.78;1.55;;;24.90;63.00;;;;;;5057175;28;20029;-68
2023/08/13 08:58:13;;;;;;;7.38;2.08;;;25.00;62.90;;;;;;5061883;28;20032;-68
2023/08/13 09:00:39;;;;;;;9.82;2.33;;;25.00;62.50;;;;;;5054372;28;20032;-68
2023/08/13 09:03:04;;;;;;;5.75;1.73;;;24.80;63.20;;;;;;5061160;28;20104;-68
2023/08/13 09:05:32;;;;;;;5.53;1.60;;;24.60;62.70;;;;;;5058736;28;20510;-68
2023/08/13 09:07:58;;;;;;;5.78;1.58;;;24.50;62.90;;;;;;5059465;28;20056;-68
2023/08/13 09:10:23;;;;;;;6.75;1.95;;;24.60;63.00;;;;;;5060840;28;20463;-68
2023/08/13 09:12:51;;;;;;;8.43;2.00;;;24.70;62.50;;;;;;5063633;28;20028;-68
2023/08/13 09:15:17;;;;;;;6.85;1.80;;;24.70;62.50;;;;;;5062521;28;20581;-67
2023/08/13 09:17:43;;;;;;;9.32;2.50;;;24.60;62.30;;;;;;5061841;28;20024;-67
2023/08/13 09:20:15;;;;;;;5.30;1.52;;;24.60;62.50;;;;;;5063224;28;20506;-68
2023/08/13 09:22:47;;;;;;;7.47;2.03;;;24.60;62.70;;;;;;5063387;28;20017;-67
2023/08/13 09:25:17;;;;;;;6.40;1.90;;;24.50;62.70;;;;;;5065511;28;20024;-68
2023/08/13 09:27:44;;;;;;;6.25;2.20;;;24.50;62.50;;;;;;5064539;28;20028;-68
2023/08/13 09:30:12;;;;;;;6.35;1.80;;;24.30;63.00;;;;;;5062125;28;20416;-68
2023/08/13 09:32:38;;;;;;;8.63;2.80;;;24.30;63.50;;;;;;5060927;28;20060;-68
2023/08/13 09:35:04;;;;;;;6.35;1.98;;;24.30;63.00;;;;;;5063044;28;20067;-68
2023/08/13 09:37:30;;;;;;;6.97;1.80;;;24.20;63.20;;;;;;5062987;28;20028;-68
2023/08/13 09:39:56;;;;;;;7.47;2.10;;;24.20;63.40;;;;;;5062674;28;20403;-68
2023/08/13 09:42:23;;;;;;;5.95;1.83;;;24.20;62.90;;;;;;5067118;28;20055;-68
2023/08/13 09:44:51;;;;;;;7.25;2.10;;;24.30;63.50;;;;;;5066135;28;20025;-68
2023/08/13 09:47:22;;;;;;;6.00;1.90;;;24.40;62.50;;;;;;5063731;28;20017;-68
2023/08/13 09:49:48;;;;;;;4.47;1.50;;;24.30;62.40;;;;;;5068765;28;20021;-68
2023/08/13 09:52:17;;;;;;;5.55;1.50;;;24.40;62.60;;;;;;5068921;28;20032;-68
2023/08/13 09:54:53;;;;;;;7.13;1.98;;;24.60;62.70;;;;;;5069961;28;20024;-68
2023/08/13 09:57:21;;;;;;;6.15;1.80;;;24.70;62.50;;;;;;5067259;28;20509;-67
2023/08/13 09:59:49;;;;;;;6.07;1.60;;;24.80;62.40;;;;;;5067598;28;20036;-67
2023/08/13 10:02:15;;;;;;;6.57;2.03;;;24.90;62.10;;;;;;5064180;28;20046;-68
2023/08/13 10:04:41;;;;;;;5.78;1.73;;;24.90;61.50;;;;;;5067368;28;20021;-68
2023/08/13 10:07:07;;;;;;;5.28;1.70;;;24.70;61.10;;;;;;5065188;28;20021;-68
2023/08/13 10:09:33;;;;;;;7.20;1.73;;;24.60;61.40;;;;;;5067718;28;20047;-68
2023/08/13 10:12:01;;;;;;;6.35;2.08;;;24.80;61.60;;;;;;5060702;28;20060;-68
2023/08/13 10:14:27;;;;;;;4.80;1.58;;;24.80;61.10;;;;;;5066653;28;20620;-68
2023/08/13 10:16:53;;;;;;;5.05;1.80;;;24.80;61.30;;;;;;5068102;28;20111;-69
2023/08/13 10:19:19;;;;;;;4.97;1.70;;;24.90;61.70;;;;;;5068465;28;20100;-68
2023/08/13 10:21:56;;;;;;;5.28;1.60;;;24.90;60.70;;;;;;5070013;28;20044;-68
2023/08/13 10:24:22;;;;;;;7.50;1.90;;;24.90;61.00;;;;;;5068361;28;20028;-69
2023/08/13 10:26:48;;;;;;;4.63;1.63;;;25.00;60.70;;;;;;5067397;28;20051;-68
2023/08/13 10:29:21;;;;;;;3.67;1.30;;;25.10;60.60;;;;;;5069456;28;20028;-69
2023/08/13 10:31:59;;;;;;;4.43;1.65;;;25.30;60.60;;;;;;5064007;28;20024;-68
2023/08/13 10:34:53;;;;;;;5.47;1.52;;;25.40;59.90;;;;;;5069149;28;20054;-68
2023/08/13 10:37:20;;;;;;;5.43;1.70;;;25.50;59.40;;;;;;5066015;28;20025;-69
2023/08/13 10:39:53;;;;;;;7.78;1.83;;;25.60;59.10;;;;;;5064744;28;20032;-69
2023/08/13 10:42:27;;;;;;;5.60;1.80;;;25.50;58.60;;;;;;5066635;28;20028;-69
2023/08/13 10:45:04;;;;;;;6.63;1.83;;;25.50;59.00;;;;;;5061864;28;20277;-69
2023/08/13 10:47:43;;;;;;;5.85;1.70;;;25.30;58.60;;;;;;5063965;28;20029;-69
2023/08/13 10:50:35;;;;;;;5.40;1.75;;;25.20;58.80;;;;;;5064193;28;20828;-69
2023/08/13 10:53:08;;;;;;;4.60;1.60;;;25.10;59.00;;;;;;5060896;28;20457;-69
2023/08/13 10:55:43;;;;;;;7.32;1.95;;;25.10;59.30;;;;;;5065698;28;20035;-69
2023/08/13 10:58:42;;;;;;;4.20;1.58;;;25.00;59.20;;;;;;5065790;28;20025;-69
2023/08/13 11:01:13;;;;;;;6.20;1.88;;;25.00;59.50;;;;;;5064116;28;20051;-69
2023/08/13 11:03:45;;;;;;;3.45;1.40;;;24.80;59.60;;;;;;5068314;28;20127;-69
2023/08/13 11:06:11;;;;;;;4.32;1.50;;;24.90;60.20;;;;;;5062843;28;20021;-69
2023/08/13 11:08:40;;;;;;;3.60;1.55;;;25.00;60.30;;;;;;5063910;28;20410;-69
2023/08/13 11:11:06;;;;;;;2.70;1.27;;;25.00;60.30;;;;;;5067960;28;20021;-69
2023/08/13 11:13:32;;;;;;;4.75;1.58;;;25.00;60.50;;;;;;5066351;28;20145;-68
2023/08/13 11:15:58;;;;;;;4.65;2.00;;;25.00;60.10;;;;;;5059832;28;20027;-68
2023/08/13 11:18:24;;;;;;;4.32;1.70;;;25.00;59.90;;;;;;5066568;28;20032;-68
2023/08/13 11:20:50;;;;;;;4.80;1.38;;;25.00;60.10;;;;;;5067220;28;20090;-68
2023/08/13 11:23:18;;;;;;;4.13;1.58;;;25.00;60.30;;;;;;5062582;28;20032;-69
2023/08/13 11:25:48;;;;;;;4.43;1.38;;;25.10;60.50;;;;;;5062779;28;20576;-69
2023/08/13 11:28:25;;;;;;;4.53;1.50;;;25.20;60.50;;;;;;5062703;28;20016;-69
2023/08/13 11:30:52;;;;;;;6.43;1.73;;;25.30;60.30;;;;;;5063647;28;20070;-68
2023/08/13 11:33:19;;;;;;;4.80;1.30;;;25.40;59.80;;;;;;5068108;28;20037;-69
2023/08/13 11:35:45;;;;;;;4.68;1.65;;;25.40;59.70;;;;;;5065163;28;20437;-68
2023/08/13 11:38:11;;;;;;;5.25;1.73;;;25.50;59.50;;;;;;5056744;28;20024;-69
2023/08/13 11:40:37;;;;;;;4.43;1.50;;;25.70;59.10;;;;;;5061419;28;20078;-68
2023/08/13 11:43:03;;;;;;;6.07;2.05;;;25.70;58.90;;;;;;5066428;28;20024;-69
2023/08/13 11:45:32;;;;;;;5.57;1.50;;;25.70;58.50;;;;;;5062014;28;20048;-68
2023/08/13 11:48:13;;;;;;;5.15;1.40;;;25.60;58.50;;;;;;5064944;28;20786;-70
2023/08/13 11:50:39;;;;;;;6.57;1.90;;;25.60;58.60;;;;;;5061695;28;20032;-68
2023/08/13 11:53:09;;;;;;;5.47;1.70;;;25.50;58.30;;;;;;5063635;28;20020;-68
2023/08/13 11:55:38;;;;;;;5.40;1.77;;;25.50;58.40;;;;;;5065555;28;20666;-69
2023/08/13 11:58:04;;;;;;;4.80;1.75;;;25.50;58.20;;;;;;5065492;28;20114;-69
2023/08/13 12:00:30;;;;;;;5.40;1.70;;;25.60;58.20;;;;;;5057335;28;20143;-69
2023/08/13 12:02:57;;;;;;;4.80;1.75;;;25.80;58.10;;;;;;5065917;28;20398;-69
2023/08/13 12:05:34;;;;;;;5.45;1.95;;;26.00;57.40;;;;;;5068106;28;20013;-68
2023/08/13 12:08:04;;;;;;;3.92;1.50;;;26.10;56.50;;;;;;5064893;28;20032;-69
2023/08/13 12:10:32;;;;;;;3.67;1.47;;;26.00;56.60;;;;;;5064840;28;20372;-69
2023/08/13 12:12:58;;;;;;;6.85;1.85;;;26.00;56.50;;;;;;5067859;28;20024;-68
2023/08/13 12:15:24;;;;;;;5.03;1.60;;;26.00;56.60;;;;;;5066578;28;20028;-68
2023/08/13 12:17:51;;;;;;;5.53;1.65;;;26.20;56.70;;;;;;5067398;28;20574;-69
2023/08/13 12:20:17;;;;;;;5.15;1.83;;;26.20;56.80;;;;;;5062226;28;20079;-68
2023/08/13 12:22:43;;;;;;;6.15;2.03;;;26.20;56.00;;;;;;5064793;28;20425;-68
2023/08/13 12:25:08;;;;;;;6.70;2.10;;;26.10;55.70;;;;;;5063246;28;20040;-69
2023/08/13 12:27:34;;;;;;;6.13;1.90;;;25.90;55.50;;;;;;5063795;28;20039;-69
2023/08/13 12:30:01;;;;;;;5.32;1.70;;;25.80;55.60;;;;;;5063882;28;20058;-69
2023/08/13 12:32:26;;;;;;;6.13;1.95;;;25.80;56.00;;;;;;5063910;28;20028;-69
2023/08/13 12:34:52;;;;;;;6.60;2.10;;;25.70;55.90;;;;;;5058952;28;20025;-68
2023/08/13 12:37:17;;;;;;;5.43;1.60;;;25.70;56.50;;;;;;5066037;28;20037;-68
2023/08/13 12:39:43;;;;;;;6.25;1.90;;;25.70;56.30;;;;;;5062043;28;20028;-69
2023/08/13 12:42:12;;;;;;;5.95;2.03;;;25.80;56.20;;;;;;5056677;28;20035;-69
2023/08/13 12:44:37;;;;;;;5.40;1.65;;;25.80;56.30;;;;;;5065731;28;20112;-68
2023/08/13 12:47:03;;;;;;;5.95;1.73;;;25.80;56.50;;;;;;5067407;28;20505;-68